Time;durP1;ratioP1;P1;durP2;ratioP2;P2;SDS_P1;SDS_P2;PMS_P1;PMS_P2;Temp;Humidity;BMP_temperature;BMP_pressure;BME280_temperature;BME280_humidity;BME280_pressure;Samples;Min_cycle;Max_cycle;Signal;HPM_P1;HPM_P2
2022/12/11 00:01:12;;;;;;;2.10;1.60;;;;;;;;;;5081974;28;20038;-41
2022/12/11 00:03:38;;;;;;;2.15;1.60;;;;;;;;;;5086854;28;20020;-40
2022/12/11 00:06:05;;;;;;;2.13;1.58;;;;;;;;;;5085063;28;20024;-40
2022/12/11 00:08:31;;;;;;;1.95;1.30;;;;;;;;;;5079783;28;20047;-40
2022/12/11 00:10:57;;;;;;;2.28;1.67;;;;;;;;;;5086159;28;20427;-40
2022/12/11 00:13:23;;;;;;;1.95;1.55;;;;;;;;;;5088956;28;20024;-40
2022/12/11 00:15:49;;;;;;;2.13;1.90;;;;;;;;;;5086025;28;20020;-40
2022/12/11 00:18:15;;;;;;;2.50;1.65;;;;;;;;;;5084327;28;20071;-40
2022/12/11 00:20:41;;;;;;;2.28;1.63;;;;;;;;;;5081943;28;20381;-40
2022/12/11 00:23:07;;;;;;;2.22;1.65;;;;;;;;;;5087171;28;20028;-41
2022/12/11 00:25:33;;;;;;;2.72;1.60;;;;;;;;;;5068428;28;20029;-41
2022/12/11 00:27:59;;;;;;;1.90;1.70;;;;;;;;;;5091214;28;20020;-44
2022/12/11 00:30:25;;;;;;;1.65;1.55;;;;;;;;;;5089218;28;20548;-40
2022/12/11 00:32:51;;;;;;;2.60;1.70;;;;;;;;;;5093272;28;20153;-40
2022/12/11 00:35:17;;;;;;;1.58;1.38;;;;;;;;;;5091218;28;20079;-41
2022/12/11 00:37:43;;;;;;;2.20;1.73;;;;;;;;;;5093352;28;20032;-40
2022/12/11 00:40:10;;;;;;;2.20;1.60;;;;;;;;;;5093653;28;20050;-42
2022/12/11 00:42:36;;;;;;;2.15;1.73;;;;;;;;;;5084352;28;20025;-40
2022/12/11 00:45:03;;;;;;;2.60;1.70;;;;;;;;;;5083413;28;20038;-40
2022/12/11 00:47:29;;;;;;;3.15;1.98;;;;;;;;;;5092832;28;20668;-41
2022/12/11 00:49:54;;;;;;;2.42;1.80;;;;;;;;;;5093842;28;20051;-41
2022/12/11 00:52:20;;;;;;;2.13;1.60;;;;;;;;;;5094188;28;20051;-40
2022/12/11 00:54:46;;;;;;;2.10;1.90;;;;;;;;;;5093347;28;20573;-40
2022/12/11 00:57:12;;;;;;;1.80;1.40;;;;;;;;;;5098978;28;20117;-41
2022/12/11 00:59:38;;;;;;;2.55;1.67;;;;;;;;;;5099302;28;20035;-41
2022/12/11 01:02:04;;;;;;;1.65;1.45;;;;;;;;;;5094466;28;20035;-40
2022/12/11 01:04:30;;;;;;;2.58;1.77;;;;;;;;;;5085635;28;20025;-40
2022/12/11 01:06:56;;;;;;;1.75;1.45;;;;;;;;;;5094127;28;20051;-40
2022/12/11 01:12:07;;;;;;;3.53;1.90;;;;;;;;;;5094689;28;20031;-40
2022/12/11 01:14:33;;;;;;;2.47;1.98;;;;;;;;;;5088323;28;20028;-40
2022/12/11 01:16:59;;;;;;;2.47;1.75;;;;;;;;;;5086855;28;20021;-40
2022/12/11 01:19:25;;;;;;;2.20;1.80;;;;;;;;;;5091935;28;20084;-40
2022/12/11 01:21:51;;;;;;;3.10;1.90;;;;;;;;;;5094310;28;20024;-40
2022/12/11 01:24:17;;;;;;;3.80;2.45;;;;;;;;;;5090447;28;20149;-40
2022/12/11 01:26:43;;;;;;;3.55;1.95;;;;;;;;;;5093579;28;20031;-40
2022/12/11 01:29:09;;;;;;;1.88;1.60;;;;;;;;;;5088950;28;20535;-41
2022/12/11 01:31:35;;;;;;;3.00;1.80;;;;;;;;;;5084658;28;20020;-40
2022/12/11 01:34:01;;;;;;;1.92;1.67;;;;;;;;;;5088683;28;20021;-40
2022/12/11 01:36:27;;;;;;;3.10;1.60;;;;;;;;;;5084166;28;20028;-40
2022/12/11 01:38:53;;;;;;;2.17;1.80;;;;;;;;;;5094012;28;20066;-40
2022/12/11 01:41:19;;;;;;;2.80;2.00;;;;;;;;;;5100131;28;20394;-40
2022/12/11 01:44:00;;;;;;;2.83;1.85;;;;;;;;;;5092786;28;20082;-40
2022/12/11 01:46:27;;;;;;;1.92;1.60;;;;;;;;;;5092511;28;20105;-40
2022/12/11 01:48:54;;;;;;;2.50;1.80;;;;;;;;;;5094267;28;20032;-40
2022/12/11 01:51:20;;;;;;;2.78;1.80;;;;;;;;;;5092812;28;20024;-40
2022/12/11 01:53:50;;;;;;;2.63;2.10;;;;;;;;;;5091045;28;20148;-40
2022/12/11 01:56:17;;;;;;;2.67;1.95;;;;;;;;;;5086567;28;20546;-41
2022/12/11 01:58:46;;;;;;;2.75;1.98;;;;;;;;;;5101955;28;20369;-40
2022/12/11 02:01:14;;;;;;;2.75;1.92;;;;;;;;;;5079517;28;20033;-43
2022/12/11 02:03:40;;;;;;;3.13;2.28;;;;;;;;;;5092859;28;20064;-40
2022/12/11 02:06:06;;;;;;;3.20;2.15;;;;;;;;;;5093610;28;20384;-40
2022/12/11 02:08:32;;;;;;;2.58;2.30;;;;;;;;;;5092706;28;20078;-40
2022/12/11 02:11:06;;;;;;;2.92;1.98;;;;;;;;;;5093779;28;20426;-40
2022/12/11 02:13:41;;;;;;;2.50;1.88;;;;;;;;;;5092398;28;20418;-40
2022/12/11 02:16:21;;;;;;;2.80;2.00;;;;;;;;;;5105188;28;20073;-40
2022/12/11 02:19:01;;;;;;;3.03;2.25;;;;;;;;;;5085858;28;20036;-40
2022/12/11 02:21:31;;;;;;;2.72;1.60;;;;;;;;;;5092171;28;20028;-40
2022/12/11 02:23:57;;;;;;;2.10;1.63;;;;;;;;;;5091182;28;20671;-40
2022/12/11 02:26:32;;;;;;;2.67;1.90;;;;;;;;;;5091717;28;20031;-40
2022/12/11 02:29:00;;;;;;;2.03;1.75;;;;;;;;;;5091185;28;20070;-40
2022/12/11 02:31:36;;;;;;;2.85;2.03;;;;;;;;;;5095346;28;20076;-40
2022/12/11 02:34:04;;;;;;;2.35;1.80;;;;;;;;;;5083996;28;20028;-40
2022/12/11 02:36:33;;;;;;;2.10;1.67;;;;;;;;;;5082209;28;20697;-40
2022/12/11 02:39:00;;;;;;;2.53;2.03;;;;;;;;;;5092840;28;20028;-40
2022/12/11 02:41:27;;;;;;;3.28;1.90;;;;;;;;;;5091909;28;20431;-40
2022/12/11 02:43:54;;;;;;;2.47;1.77;;;;;;;;;;5091515;28;20028;-40
2022/12/11 02:46:21;;;;;;;2.47;1.95;;;;;;;;;;5090858;28;20490;-40
2022/12/11 02:48:49;;;;;;;2.70;1.75;;;;;;;;;;5103393;28;20473;-40
2022/12/11 02:51:16;;;;;;;1.90;1.50;;;;;;;;;;5091709;28;20032;-41
2022/12/11 02:53:43;;;;;;;2.08;1.77;;;;;;;;;;5085673;28;20127;-40
2022/12/11 02:56:10;;;;;;;2.10;1.65;;;;;;;;;;5085477;28;20028;-41
2022/12/11 02:58:39;;;;;;;1.83;1.40;;;;;;;;;;5101846;28;20074;-40
2022/12/11 03:01:05;;;;;;;2.13;1.38;;;;;;;;;;5074418;28;20643;-40
2022/12/11 03:03:31;;;;;;;2.42;1.55;;;;;;;;;;5090735;28;20066;-40
2022/12/11 03:05:57;;;;;;;2.35;1.70;;;;;;;;;;5092212;28;20024;-40
2022/12/11 03:08:23;;;;;;;1.63;1.38;;;;;;;;;;5091347;28;20031;-40
2022/12/11 03:10:49;;;;;;;2.30;1.98;;;;;;;;;;5092588;28;20020;-40
2022/12/11 03:13:17;;;;;;;1.40;1.30;;;;;;;;;;5088845;28;20038;-40
2022/12/11 03:15:43;;;;;;;1.70;1.42;;;;;;;;;;5092125;28;20024;-41
2022/12/11 03:18:18;;;;;;;1.83;1.50;;;;;;;;;;5082744;28;20028;-42
2022/12/11 03:20:47;;;;;;;1.58;1.20;;;;;;;;;;5101453;28;20040;-40
2022/12/11 03:23:31;;;;;;;2.38;1.75;;;;;;;;;;5091172;28;20020;-41
2022/12/11 03:26:05;;;;;;;2.60;1.42;;;;;;;;;;5089821;28;20069;-40
2022/12/11 03:28:37;;;;;;;1.55;1.30;;;;;;;;;;5091105;28;20111;-40
2022/12/11 03:31:07;;;;;;;1.98;1.73;;;;;;;;;;5085159;28;20078;-40
2022/12/11 03:33:35;;;;;;;1.55;1.30;;;;;;;;;;5089106;28;20032;-40
2022/12/11 03:36:04;;;;;;;2.33;1.55;;;;;;;;;;5090963;28;20126;-41
2022/12/11 03:38:33;;;;;;;2.45;1.58;;;;;;;;;;5090795;28;20093;-40
2022/12/11 03:41:01;;;;;;;3.10;2.05;;;;;;;;;;5092262;28;20026;-40
2022/12/11 03:43:30;;;;;;;2.42;1.77;;;;;;;;;;5088656;28;20020;-40
2022/12/11 03:45:57;;;;;;;1.85;1.48;;;;;;;;;;5083447;28;20020;-40
2022/12/11 03:48:25;;;;;;;1.67;1.20;;;;;;;;;;5090838;28;20103;-40
2022/12/11 03:50:51;;;;;;;2.22;1.75;;;;;;;;;;5092075;28;20016;-40
2022/12/11 03:53:18;;;;;;;1.35;1.25;;;;;;;;;;5089174;28;20107;-39
2022/12/11 03:55:44;;;;;;;1.55;1.45;;;;;;;;;;5081715;28;20052;-40
2022/12/11 03:58:10;;;;;;;1.88;1.50;;;;;;;;;;5096978;28;20370;-42
2022/12/11 04:00:36;;;;;;;1.77;1.67;;;;;;;;;;5091965;28;20103;-40
2022/12/11 04:03:11;;;;;;;2.13;1.73;;;;;;;;;;5091218;28;20024;-40
2022/12/11 04:05:37;;;;;;;2.28;1.33;;;;;;;;;;5091214;28;20047;-40
2022/12/11 04:08:03;;;;;;;1.98;1.70;;;;;;;;;;5091321;28;20111;-40
2022/12/11 04:10:29;;;;;;;2.58;1.65;;;;;;;;;;5097411;28;20043;-40
2022/12/11 04:12:55;;;;;;;1.90;1.63;;;;;;;;;;5090887;28;20028;-40
2022/12/11 04:15:21;;;;;;;2.05;1.83;;;;;;;;;;5089541;28;20039;-41
2022/12/11 04:26:10;;;;;;;1.92;1.63;;;;;;;;;;5089544;28;20046;-40
2022/12/11 04:28:36;;;;;;;2.30;1.60;;;;;;;;;;5090593;28;20064;-40
2022/12/11 04:31:03;;;;;;;1.92;1.50;;;;;;;;;;5089574;28;20474;-40
2022/12/11 04:33:29;;;;;;;1.40;1.30;;;;;;;;;;5090006;28;20783;-40
2022/12/11 04:35:57;;;;;;;2.47;1.70;;;;;;;;;;5083920;28;20431;-40
2022/12/11 04:38:23;;;;;;;1.60;1.35;;;;;;;;;;5089888;28;20060;-40
2022/12/11 04:40:49;;;;;;;1.98;1.50;;;;;;;;;;5091305;28;20059;-40
2022/12/11 04:43:15;;;;;;;1.70;1.40;;;;;;;;;;5092478;28;20024;-40
2022/12/11 04:45:41;;;;;;;1.75;1.35;;;;;;;;;;5090287;28;20354;-40
2022/12/11 04:48:07;;;;;;;2.47;1.63;;;;;;;;;;5090861;28;20062;-40
2022/12/11 04:50:33;;;;;;;1.90;1.67;;;;;;;;;;5090832;28;20027;-40
2022/12/11 04:52:59;;;;;;;2.45;1.48;;;;;;;;;;5090715;28;20020;-40
2022/12/11 04:55:25;;;;;;;1.75;1.60;;;;;;;;;;5088762;28;20409;-40
2022/12/11 04:57:51;;;;;;;1.48;1.30;;;;;;;;;;5099083;28;20099;-40
2022/12/11 05:00:17;;;;;;;1.40;1.30;;;;;;;;;;5090689;28;20020;-40
2022/12/11 05:02:43;;;;;;;2.05;1.38;;;;;;;;;;5090386;28;20047;-40
2022/12/11 05:05:10;;;;;;;1.80;1.42;;;;;;;;;;5083598;28;20409;-40
2022/12/11 05:07:36;;;;;;;1.63;1.30;;;;;;;;;;5084434;28;20025;-40
2022/12/11 05:10:02;;;;;;;1.95;1.52;;;;;;;;;;5094702;28;20028;-40
2022/12/11 05:12:28;;;;;;;2.45;1.60;;;;;;;;;;5093505;28;20035;-40
2022/12/11 05:14:54;;;;;;;2.03;1.60;;;;;;;;;;5093180;28;20031;-41
2022/12/11 05:17:21;;;;;;;1.77;1.50;;;;;;;;;;5094710;28;20044;-40
2022/12/11 05:19:48;;;;;;;1.85;1.27;;;;;;;;;;5094408;28;20047;-40
2022/12/11 05:22:14;;;;;;;2.03;1.60;;;;;;;;;;5079425;28;20029;-41
2022/12/11 05:24:40;;;;;;;2.90;1.50;;;;;;;;;;5092895;28;20016;-40
2022/12/11 05:27:06;;;;;;;2.15;1.40;;;;;;;;;;5093351;28;20024;-40
2022/12/11 05:29:32;;;;;;;1.75;1.48;;;;;;;;;;5086244;28;20107;-40
2022/12/11 05:31:58;;;;;;;1.50;1.40;;;;;;;;;;5087923;28;20044;-40
2022/12/11 05:34:24;;;;;;;2.58;1.63;;;;;;;;;;5100251;28;20060;-40
2022/12/11 05:36:50;;;;;;;1.55;1.35;;;;;;;;;;5093709;28;20077;-40
2022/12/11 05:39:16;;;;;;;2.00;1.40;;;;;;;;;;5093545;28;20039;-40
2022/12/11 05:41:42;;;;;;;1.70;1.33;;;;;;;;;;5094094;28;20020;-40
2022/12/11 05:44:11;;;;;;;2.40;1.60;;;;;;;;;;5085812;28;20037;-40
2022/12/11 05:46:37;;;;;;;1.35;1.25;;;;;;;;;;5088454;28;20020;-40
2022/12/11 05:49:03;;;;;;;1.38;1.27;;;;;;;;;;5094141;28;20469;-40
2022/12/11 05:51:29;;;;;;;1.58;1.30;;;;;;;;;;5093014;28;20031;-40
2022/12/11 05:53:56;;;;;;;2.30;1.80;;;;;;;;;;5093544;28;20489;-40
2022/12/11 05:56:23;;;;;;;1.50;1.40;;;;;;;;;;5091163;28;20016;-40
2022/12/11 05:58:50;;;;;;;1.85;1.65;;;;;;;;;;5104028;28;20028;-40
2022/12/11 06:01:24;;;;;;;1.42;1.30;;;;;;;;;;5083843;28;20508;-40
2022/12/11 06:03:50;;;;;;;1.60;1.40;;;;;;;;;;5093659;28;20020;-40
2022/12/11 06:06:16;;;;;;;1.60;1.33;;;;;;;;;;5093665;28;20032;-41
2022/12/11 06:08:42;;;;;;;1.63;1.40;;;;;;;;;;5094158;28;20028;-40
2022/12/11 06:11:09;;;;;;;1.80;1.50;;;;;;;;;;5090840;28;20033;-40
2022/12/11 06:13:34;;;;;;;2.47;1.48;;;;;;;;;;5082588;28;20020;-40
2022/12/11 06:16:01;;;;;;;1.95;1.33;;;;;;;;;;5091794;28;20032;-40
2022/12/11 06:18:27;;;;;;;1.95;1.73;;;;;;;;;;5082711;28;20085;-41
2022/12/11 06:20:53;;;;;;;2.15;1.45;;;;;;;;;;5092163;28;20473;-44
2022/12/11 06:23:19;;;;;;;1.60;1.27;;;;;;;;;;5101944;28;20024;-40
2022/12/11 06:25:45;;;;;;;2.33;1.80;;;;;;;;;;5090971;28;20131;-40
2022/12/11 06:28:11;;;;;;;1.63;1.27;;;;;;;;;;5092401;28;20032;-42
2022/12/11 06:30:37;;;;;;;1.88;1.40;;;;;;;;;;5090695;28;20035;-40
2022/12/11 06:33:03;;;;;;;2.67;1.50;;;;;;;;;;5092996;28;20020;-40
2022/12/11 06:35:30;;;;;;;2.72;1.25;;;;;;;;;;5087885;28;20068;-40
2022/12/11 06:37:56;;;;;;;1.63;1.35;;;;;;;;;;5097212;28;20016;-40
2022/12/11 06:40:21;;;;;;;1.80;1.50;;;;;;;;;;5092286;28;20407;-40
2022/12/11 06:42:47;;;;;;;1.70;1.60;;;;;;;;;;5092237;28;20031;-40
2022/12/11 06:45:13;;;;;;;3.30;1.60;;;;;;;;;;5090049;28;20388;-42
2022/12/11 06:47:39;;;;;;;1.80;1.60;;;;;;;;;;5092588;28;20527;-40
2022/12/11 06:50:06;;;;;;;1.88;1.58;;;;;;;;;;5073069;28;20105;-40
2022/12/11 06:52:32;;;;;;;2.53;1.80;;;;;;;;;;5097857;28;20076;-40
2022/12/11 06:54:57;;;;;;;3.30;1.73;;;;;;;;;;5094999;28;20123;-40
2022/12/11 06:57:23;;;;;;;2.40;1.38;;;;;;;;;;5097203;28;20028;-40
2022/12/11 06:59:52;;;;;;;2.13;1.50;;;;;;;;;;5095537;28;20032;-40
2022/12/11 07:02:19;;;;;;;2.05;1.55;;;;;;;;;;5091642;28;20024;-40
2022/12/11 07:04:46;;;;;;;1.80;1.40;;;;;;;;;;5092522;28;20567;-41
2022/12/11 07:07:12;;;;;;;2.22;1.60;;;;;;;;;;5089203;28;20058;-41
2022/12/11 07:09:39;;;;;;;1.88;1.50;;;;;;;;;;5091515;28;20046;-40
2022/12/11 07:12:05;;;;;;;1.85;1.45;;;;;;;;;;5092205;28;20020;-40
2022/12/11 07:14:31;;;;;;;1.50;1.33;;;;;;;;;;5091529;28;20067;-40
2022/12/11 07:16:57;;;;;;;1.85;1.48;;;;;;;;;;5084694;28;20461;-40
2022/12/11 07:19:24;;;;;;;2.08;1.58;;;;;;;;;;5089548;28;20032;-40
2022/12/11 07:21:50;;;;;;;2.05;1.63;;;;;;;;;;5091920;28;20423;-40
2022/12/11 07:24:16;;;;;;;1.95;1.77;;;;;;;;;;5090227;28;20035;-40
2022/12/11 07:26:42;;;;;;;1.70;1.50;;;;;;;;;;5092039;28;20023;-40
2022/12/11 07:29:08;;;;;;;1.50;1.20;;;;;;;;;;5088565;28;20488;-40
2022/12/11 07:31:34;;;;;;;1.88;1.77;;;;;;;;;;5090254;28;20028;-40
2022/12/11 07:34:01;;;;;;;2.20;1.75;;;;;;;;;;5074425;28;20042;-40
2022/12/11 07:36:28;;;;;;;2.60;1.40;;;;;;;;;;5090756;28;20020;-40
2022/12/11 07:38:54;;;;;;;1.55;1.33;;;;;;;;;;5089607;28;20035;-40
2022/12/11 07:41:21;;;;;;;2.13;1.67;;;;;;;;;;5075568;28;20032;-40
2022/12/11 07:43:48;;;;;;;2.25;1.90;;;;;;;;;;5092201;28;20020;-40
2022/12/11 07:46:15;;;;;;;2.05;1.13;;;;;;;;;;5090945;28;20391;-41
2022/12/11 07:48:42;;;;;;;1.45;1.20;;;;;;;;;;5086879;28;20111;-40
2022/12/11 07:51:08;;;;;;;1.98;1.48;;;;;;;;;;5091665;28;20035;-41
2022/12/11 07:53:34;;;;;;;3.13;1.73;;;;;;;;;;5090506;28;20020;-41
2022/12/11 07:56:00;;;;;;;3.50;1.42;;;;;;;;;;5092067;28;20480;-40
2022/12/11 07:58:27;;;;;;;2.10;1.50;;;;;;;;;;5087066;28;20059;-40
2022/12/11 08:00:53;;;;;;;3.20;1.73;;;;;;;;;;5090648;28;20042;-40
2022/12/11 08:03:19;;;;;;;2.45;1.85;;;;;;;;;;5088284;28;20052;-48
2022/12/11 08:05:49;;;;;;;2.60;1.88;;;;;;;;;;5096757;28;20019;-48
2022/12/11 08:08:15;;;;;;;1.83;1.30;;;;;;;;;;5086622;28;20048;-47
2022/12/11 08:10:42;;;;;;;1.80;1.52;;;;;;;;;;5101617;28;20362;-48
2022/12/11 08:13:08;;;;;;;3.20;1.95;;;;;;;;;;5099565;28;20033;-48
2022/12/11 08:15:34;;;;;;;1.85;1.60;;;;;;;;;;5102806;28;20020;-47
2022/12/11 08:18:01;;;;;;;2.05;1.77;;;;;;;;;;5091798;28;20032;-48
2022/12/11 08:20:27;;;;;;;2.72;1.73;;;;;;;;;;5090630;28;20043;-49
2022/12/11 08:22:53;;;;;;;2.72;2.10;;;;;;;;;;5094471;28;20032;-49
2022/12/11 08:25:19;;;;;;;2.45;1.60;;;;;;;;;;5099657;28;20040;-47
2022/12/11 08:27:45;;;;;;;2.60;1.67;;;;;;;;;;5093613;28;20027;-47
2022/12/11 08:30:11;;;;;;;2.40;1.95;;;;;;;;;;5082169;28;20159;-50
2022/12/11 08:32:37;;;;;;;2.20;1.65;;;;;;;;;;5092353;28;20033;-44
2022/12/11 08:35:03;;;;;;;1.95;1.48;;;;;;;;;;5090665;28;20028;-46
2022/12/11 08:37:29;;;;;;;1.75;1.60;;;;;;;;;;5088827;28;20074;-47
2022/12/11 08:39:55;;;;;;;2.70;2.00;;;;;;;;;;5085049;28;20043;-47
2022/12/11 08:42:21;;;;;;;1.88;1.58;;;;;;;;;;5087493;28;20029;-46
2022/12/11 08:44:47;;;;;;;2.15;1.30;;;;;;;;;;5093718;28;20036;-47
2022/12/11 08:47:14;;;;;;;2.35;1.80;;;;;;;;;;5101404;28;20082;-48
2022/12/11 08:49:40;;;;;;;2.42;1.88;;;;;;;;;;5101813;28;20032;-47
2022/12/11 08:52:06;;;;;;;1.80;1.50;;;;;;;;;;5087667;28;20028;-47
2022/12/11 08:54:32;;;;;;;2.17;1.45;;;;;;;;;;5094948;28;20201;-47
2022/12/11 08:56:58;;;;;;;2.22;1.63;;;;;;;;;;5099769;28;20094;-47
2022/12/11 08:59:24;;;;;;;1.70;1.55;;;;;;;;;;5094718;28;20036;-48
2022/12/11 09:01:51;;;;;;;1.42;1.33;;;;;;;;;;5083888;28;20024;-48
2022/12/11 09:04:17;;;;;;;2.08;1.73;;;;;;;;;;5091012;28;20465;-47
2022/12/11 09:06:42;;;;;;;1.67;1.13;;;;;;;;;;5096242;28;20044;-47
2022/12/11 09:09:08;;;;;;;1.75;1.60;;;;;;;;;;5085365;28;20078;-46
2022/12/11 09:11:36;;;;;;;3.78;1.50;;;;;;;;;;5102976;28;20487;-47
2022/12/11 09:14:02;;;;;;;3.85;2.13;;;;;;;;;;5079768;28;20543;-47
2022/12/11 09:16:28;;;;;;;1.50;1.40;;;;;;;;;;5099703;28;20036;-48
2022/12/11 09:18:55;;;;;;;2.28;1.45;;;;;;;;;;5086681;28;20533;-49
2022/12/11 09:21:23;;;;;;;2.17;1.58;;;;;;;;;;5094037;28;20031;-48
2022/12/11 09:23:49;;;;;;;2.08;1.65;;;;;;;;;;5085213;28;20073;-49
2022/12/11 09:26:17;;;;;;;2.35;1.95;;;;;;;;;;5091135;28;20093;-46
2022/12/11 09:28:43;;;;;;;1.95;1.55;;;;;;;;;;5095044;28;20028;-45
2022/12/11 09:31:09;;;;;;;2.00;1.70;;;;;;;;;;5091104;28;20426;-47
2022/12/11 09:33:35;;;;;;;1.83;1.60;;;;;;;;;;5092176;28;20032;-46
2022/12/11 09:36:01;;;;;;;3.25;1.63;;;;;;;;;;5093921;28;20024;-46
2022/12/11 09:38:27;;;;;;;6.65;2.30;;;;;;;;;;5091764;28;20028;-45
2022/12/11 09:40:54;;;;;;;2.13;1.75;;;;;;;;;;5091503;28;20028;-46
2022/12/11 09:43:32;;;;;;;2.33;1.63;;;;;;;;;;5074367;28;20032;-45
2022/12/11 09:46:00;;;;;;;2.08;1.70;;;;;;;;;;5081267;28;20055;-45
2022/12/11 09:48:26;;;;;;;3.45;1.60;;;;;;;;;;5090470;28;20036;-46
2022/12/11 09:50:53;;;;;;;3.17;2.22;;;;;;;;;;5098960;28;20368;-45
2022/12/11 09:53:19;;;;;;;2.83;1.67;;;;;;;;;;5085343;28;20473;-45
2022/12/11 09:55:55;;;;;;;2.38;1.67;;;;;;;;;;5090824;28;20024;-45
2022/12/11 09:58:48;;;;;;;2.13;1.88;;;;;;;;;;5100293;28;20047;-45
2022/12/11 10:01:21;;;;;;;3.08;1.52;;;;;;;;;;5090107;28;20447;-46
2022/12/11 10:03:54;;;;;;;3.35;1.80;;;;;;;;;;5093135;28;20414;-45
2022/12/11 10:06:43;;;;;;;2.55;1.65;;;;;;;;;;5092122;28;20381;-45
2022/12/11 10:09:17;;;;;;;2.47;1.55;;;;;;;;;;5087290;28;20434;-46
2022/12/11 10:11:43;;;;;;;3.17;1.60;;;;;;;;;;5093486;28;20024;-45
2022/12/11 10:14:19;;;;;;;2.83;1.90;;;;;;;;;;5102151;28;20337;-46
2022/12/11 10:16:48;;;;;;;2.88;1.98;;;;;;;;;;5071360;28;20028;-47
2022/12/11 10:19:27;;;;;;;3.22;1.95;;;;;;;;;;5091831;28;20381;-45
2022/12/11 10:21:54;;;;;;;2.70;2.00;;;;;;;;;;5093233;28;20107;-45
2022/12/11 10:24:24;;;;;;;5.35;1.70;;;;;;;;;;5086977;28;20025;-46
2022/12/11 10:26:53;;;;;;;4.20;1.90;;;;;;;;;;5088314;28;20046;-46
2022/12/11 10:29:20;;;;;;;3.35;2.13;;;;;;;;;;5096556;28;20208;-45
2022/12/11 10:31:56;;;;;;;4.20;1.77;;;;;;;;;;5099035;28;20048;-45
2022/12/11 10:34:31;;;;;;;2.58;2.30;;;;;;;;;;5080033;28;20369;-45
2022/12/11 10:36:57;;;;;;;2.80;1.83;;;;;;;;;;5087262;28;20020;-45
2022/12/11 10:39:23;;;;;;;1.90;1.52;;;;;;;;;;5091869;28;20032;-46
2022/12/11 10:41:50;;;;;;;4.30;1.92;;;;;;;;;;5089920;28;20069;-46
2022/12/11 10:44:28;;;;;;;4.10;2.22;;;;;;;;;;5082213;28;20035;-47
2022/12/11 10:47:05;;;;;;;2.45;1.73;;;;;;;;;;5093835;28;20015;-46
2022/12/11 10:49:32;;;;;;;2.58;1.70;;;;;;;;;;5089632;28;20221;-47
2022/12/11 10:52:01;;;;;;;2.58;1.70;;;;;;;;;;5092280;28;20047;-47
2022/12/11 10:54:37;;;;;;;2.65;1.75;;;;;;;;;;5089342;28;20447;-46
2022/12/11 10:57:04;;;;;;;3.05;2.28;;;;;;;;;;5087258;28;20455;-47
2022/12/11 10:59:38;;;;;;;2.95;1.67;;;;;;;;;;5097864;28;20061;-47
2022/12/11 11:02:05;;;;;;;2.92;1.80;;;;;;;;;;5092422;28;20103;-47
2022/12/11 11:04:32;;;;;;;2.53;1.63;;;;;;;;;;5098126;28;20020;-47
2022/12/11 11:07:03;;;;;;;2.15;1.70;;;;;;;;;;5091435;28;20440;-47
2022/12/11 11:09:29;;;;;;;2.08;1.80;;;;;;;;;;5090677;28;20032;-47
2022/12/11 11:11:55;;;;;;;4.82;2.70;;;;;;;;;;5091957;28;20030;-47
2022/12/11 11:14:24;;;;;;;3.65;2.53;;;;;;;;;;5078126;28;20024;-46
2022/12/11 11:16:51;;;;;;;3.25;1.80;;;;;;;;;;5089121;28;20024;-47
2022/12/11 11:19:19;;;;;;;4.13;1.90;;;;;;;;;;5088072;28;20369;-47
2022/12/11 11:21:49;;;;;;;3.55;1.52;;;;;;;;;;5086509;28;20032;-46
2022/12/11 11:24:23;;;;;;;3.13;1.67;;;;;;;;;;5091286;28;20031;-47
2022/12/11 11:26:50;;;;;;;3.03;1.92;;;;;;;;;;5091949;28;20031;-46
2022/12/11 11:29:32;;;;;;;2.67;1.15;;;;;;;;;;5064493;28;20055;-46
2022/12/11 11:32:02;;;;;;;3.97;2.38;;;;;;;;;;5086734;28;20016;-46
2022/12/11 11:34:29;;;;;;;2.08;1.45;;;;;;;;;;5096814;28;20024;-46
2022/12/11 11:36:56;;;;;;;2.45;1.60;;;;;;;;;;5091519;28;20487;-46
2022/12/11 11:39:35;;;;;;;3.75;2.10;;;;;;;;;;5089998;28;20107;-46
2022/12/11 11:42:14;;;;;;;3.13;1.63;;;;;;;;;;5091150;28;20029;-46
2022/12/11 11:44:47;;;;;;;2.97;2.08;;;;;;;;;;5083952;28;20020;-46
2022/12/11 11:47:21;;;;;;;1.80;1.45;;;;;;;;;;5090468;28;20056;-47
2022/12/11 11:49:56;;;;;;;2.67;1.90;;;;;;;;;;5091328;28;20388;-46
2022/12/11 11:52:25;;;;;;;3.22;1.77;;;;;;;;;;5090745;28;20028;-46
2022/12/11 11:55:02;;;;;;;2.65;1.95;;;;;;;;;;5091072;28;20073;-46
2022/12/11 11:57:47;;;;;;;2.42;1.80;;;;;;;;;;5096361;28;20089;-46
2022/12/11 12:00:19;;;;;;;2.75;1.90;;;;;;;;;;5090780;28;20120;-48
2022/12/11 12:02:45;;;;;;;3.95;2.25;;;;;;;;;;5091185;28;20019;-46
2022/12/11 12:05:15;;;;;;;2.50;1.92;;;;;;;;;;5091207;28;20103;-48
2022/12/11 12:07:47;;;;;;;2.22;1.85;;;;;;;;;;5089933;28;20062;-46
2022/12/11 12:10:12;;;;;;;;;;;;;;;;;;5091200;28;20423;-48
2022/12/11 12:12:43;;;;;;;2.45;1.67;;;;;;;;;;5090361;28;19915;-46
2022/12/11 12:15:20;;;;;;;2.15;1.63;;;;;;;;;;5091936;28;20031;-47
2022/12/11 12:17:54;;;;;;;2.65;1.90;;;;;;;;;;5080530;28;20020;-46
2022/12/11 12:20:38;;;;;;;2.80;1.90;;;;;;;;;;5087505;28;20040;-46
2022/12/11 12:23:19;;;;;;;2.03;1.70;;;;;;;;;;5088441;28;20036;-46
2022/12/11 12:25:45;;;;;;;2.13;1.77;;;;;;;;;;5091640;28;20035;-46
2022/12/11 12:28:24;;;;;;;2.67;2.08;;;;;;;;;;5090595;28;20028;-48
2022/12/11 12:30:53;;;;;;;3.15;2.20;;;;;;;;;;5097560;28;20050;-46
2022/12/11 12:33:28;;;;;;;6.95;3.80;;;;;;;;;;5094454;28;20036;-45
2022/12/11 12:36:14;;;;;;;5.80;3.55;;;;;;;;;;5095686;28;20024;-46
2022/12/11 12:38:54;;;;;;;5.18;2.33;;;;;;;;;;5088139;28;20039;-46
2022/12/11 12:41:40;;;;;;;5.78;2.80;;;;;;;;;;5094079;28;20396;-47
2022/12/11 12:44:07;;;;;;;4.45;3.20;;;;;;;;;;5072294;28;20431;-47
2022/12/11 12:46:45;;;;;;;3.00;2.10;;;;;;;;;;5096245;28;20024;-47
2022/12/11 12:49:14;;;;;;;3.55;2.22;;;;;;;;;;5089592;28;20422;-48
2022/12/11 12:51:41;;;;;;;4.38;2.80;;;;;;;;;;5094735;28;20028;-46
2022/12/11 12:54:07;;;;;;;2.72;1.90;;;;;;;;;;5094910;28;20455;-46
2022/12/11 12:56:33;;;;;;;3.83;2.60;;;;;;;;;;5093902;28;20020;-46
2022/12/11 12:58:59;;;;;;;3.75;2.40;;;;;;;;;;5102167;28;20085;-46
2022/12/11 13:01:35;;;;;;;4.15;2.38;;;;;;;;;;5093453;28;20032;-46
2022/12/11 13:04:06;;;;;;;5.07;2.72;;;;;;;;;;5098788;28;20039;-46
2022/12/11 13:06:41;;;;;;;5.82;2.47;;;;;;;;;;5081395;28;20419;-46
2022/12/11 13:09:16;;;;;;;4.53;2.20;;;;;;;;;;5084193;28;20024;-45
2022/12/11 13:11:43;;;;;;;5.00;2.67;;;;;;;;;;5083894;28;20511;-45
2022/12/11 13:14:15;;;;;;;3.83;2.35;;;;;;;;;;5108108;28;20449;-47
2022/12/11 13:16:42;;;;;;;4.18;2.30;;;;;;;;;;5085406;28;20106;-45
2022/12/11 13:19:26;;;;;;;3.10;2.40;;;;;;;;;;5092541;28;20087;-44
2022/12/11 13:22:01;;;;;;;3.17;2.13;;;;;;;;;;5088825;28;20040;-45
2022/12/11 13:24:29;;;;;;;4.50;2.28;;;;;;;;;;5091380;28;20045;-46
2022/12/11 13:26:55;;;;;;;3.58;2.35;;;;;;;;;;5094146;28;20103;-46
2022/12/11 13:29:42;;;;;;;8.98;7.00;;;;;;;;;;5090483;28;20031;-47
2022/12/11 13:32:10;;;;;;;12.15;8.27;;;;;;;;;;5091258;28;20043;-47
2022/12/11 13:34:38;;;;;;;14.27;9.27;;;;;;;;;;5101075;28;20020;-46
2022/12/11 13:37:05;;;;;;;12.40;7.78;;;;;;;;;;5098688;28;20028;-47
2022/12/11 13:39:32;;;;;;;11.70;7.00;;;;;;;;;;5091633;28;20024;-47
2022/12/11 13:42:04;;;;;;;9.90;5.57;;;;;;;;;;5088010;28;20431;-46
2022/12/11 13:44:33;;;;;;;8.75;5.90;;;;;;;;;;5090755;28;20020;-44
2022/12/11 13:47:00;;;;;;;8.45;5.35;;;;;;;;;;5087845;28;20040;-46
2022/12/11 13:49:28;;;;;;;10.43;5.07;;;;;;;;;;5088785;28;20035;-46
2022/12/11 13:51:58;;;;;;;7.15;4.00;;;;;;;;;;5084516;28;20488;-46
2022/12/11 13:54:25;;;;;;;7.90;4.63;;;;;;;;;;5092379;28;20037;-46
2022/12/11 13:56:55;;;;;;;6.50;4.47;;;;;;;;;;5060733;28;20036;-47
2022/12/11 13:59:23;;;;;;;7.25;3.80;;;;;;;;;;5088891;28;20047;-47
2022/12/11 14:01:49;;;;;;;7.15;3.75;;;;;;;;;;5091073;28;20485;-46
2022/12/11 14:04:18;;;;;;;7.63;3.95;;;;;;;;;;5093413;28;20469;-47
2022/12/11 14:06:45;;;;;;;8.48;4.60;;;;;;;;;;5090508;28;20036;-47
2022/12/11 14:09:14;;;;;;;5.25;3.10;;;;;;;;;;5090637;28;20080;-48
2022/12/11 14:11:41;;;;;;;4.53;3.03;;;;;;;;;;5072102;28;20124;-46
2022/12/11 14:14:15;;;;;;;7.75;3.65;;;;;;;;;;5096551;28;20077;-47
2022/12/11 14:16:41;;;;;;;5.97;3.28;;;;;;;;;;5089827;28;20043;-47
2022/12/11 14:19:08;;;;;;;6.47;3.58;;;;;;;;;;5088530;28;20043;-47
2022/12/11 14:21:36;;;;;;;5.03;3.05;;;;;;;;;;5096935;28;20044;-46
2022/12/11 14:24:03;;;;;;;5.03;3.53;;;;;;;;;;5096656;28;20035;-46
2022/12/11 14:26:31;;;;;;;4.15;3.10;;;;;;;;;;5087291;28;20132;-47
2022/12/11 14:28:57;;;;;;;4.82;3.00;;;;;;;;;;5092156;28;20024;-46
2022/12/11 14:31:29;;;;;;;4.63;3.15;;;;;;;;;;5094742;28;20066;-47
2022/12/11 14:34:02;;;;;;;4.78;2.75;;;;;;;;;;5100385;28;20500;-46
2022/12/11 14:36:29;;;;;;;5.03;3.00;;;;;;;;;;5097847;28;20048;-46
2022/12/11 14:38:57;;;;;;;3.85;3.13;;;;;;;;;;5072412;28;20078;-45
2022/12/11 14:41:26;;;;;;;4.30;2.58;;;;;;;;;;5090339;28;20092;-45
2022/12/11 14:43:55;;;;;;;4.63;2.90;;;;;;;;;;5099215;28;20042;-46
2022/12/11 14:46:38;;;;;;;4.38;2.90;;;;;;;;;;5093451;28;20477;-45
2022/12/11 14:49:24;;;;;;;4.72;3.00;;;;;;;;;;5092314;28;20028;-47
2022/12/11 14:51:52;;;;;;;4.78;3.25;;;;;;;;;;5084561;28;20020;-47
2022/12/11 14:54:23;;;;;;;4.45;2.80;;;;;;;;;;5095995;28;20044;-47
2022/12/11 14:56:49;;;;;;;5.68;2.97;;;;;;;;;;5092114;28;20020;-47
2022/12/11 14:59:21;;;;;;;4.70;2.63;;;;;;;;;;5092949;28;20046;-47
2022/12/11 15:01:56;;;;;;;3.53;2.58;;;;;;;;;;5078933;28;20023;-47